createdAt,value
2018-07-20T10:39:54.343Z,4.53
2018-07-20T10:42:22.323Z,4.62
2018-07-20T10:44:51.078Z,4.97
2018-07-20T10:47:19.052Z,5.17
2018-07-20T10:49:47.015Z,5.20
2018-07-20T10:52:15.007Z,4.70
2018-07-20T10:54:43.017Z,4.90
2018-07-20T10:57:10.996Z,5.22
2018-07-20T10:59:38.967Z,5.10
2018-07-20T11:02:07.065Z,5.17
2018-07-20T11:04:34.993Z,4.70
2018-07-20T11:07:02.924Z,4.80
2018-07-20T11:09:30.868Z,4.90
2018-07-20T11:11:58.785Z,4.90
2018-07-20T11:14:26.727Z,4.77
2018-07-20T11:16:54.726Z,5.30
2018-07-20T11:19:22.608Z,4.72
2018-07-20T11:21:50.575Z,5.00
2018-07-20T11:24:18.323Z,5.17
2018-07-20T13:37:58.673Z,5.25
2018-07-20T13:40:26.731Z,5.20
2018-07-20T13:42:54.756Z,5.60
2018-07-20T13:45:22.732Z,5.72
2018-07-20T13:47:50.822Z,5.03
2018-07-20T13:50:18.791Z,5.10
2018-07-20T13:52:46.870Z,5.53
2018-07-20T13:55:14.776Z,5.47
2018-07-20T13:57:42.832Z,4.95
2018-07-20T14:00:10.815Z,5.30
2018-07-20T14:02:38.814Z,5.58
2018-07-20T14:05:06.736Z,5.03
2018-07-20T14:07:35.528Z,5.03
2018-07-20T14:10:03.756Z,5.50
2018-07-20T14:12:31.731Z,5.57
2018-07-20T14:14:59.661Z,5.87
2018-07-20T14:17:27.636Z,5.03
2018-07-20T14:19:55.600Z,5.00
2018-07-20T14:22:23.540Z,5.70
2018-07-20T14:24:51.291Z,4.93
2018-07-20T14:27:19.030Z,4.87
2018-07-20T14:29:46.968Z,4.97
2018-07-20T14:32:14.905Z,5.17
2018-07-20T14:34:42.852Z,5.67
2018-07-20T14:37:10.842Z,5.17
2018-07-20T14:39:38.659Z,5.73
2018-07-20T14:42:06.645Z,5.57
2018-07-20T14:44:34.516Z,5.50
2018-07-20T14:47:02.455Z,4.90
2018-07-20T14:49:30.379Z,5.20
2018-07-20T14:51:58.276Z,5.27
2018-07-20T14:54:26.199Z,5.53
2018-07-20T14:56:54.393Z,5.33
2018-07-20T14:59:22.345Z,5.30
2018-07-20T15:01:50.280Z,5.60
2018-07-20T15:04:18.159Z,5.40
2018-07-20T15:06:46.179Z,5.67
2018-07-20T15:09:14.087Z,5.50
2018-07-20T15:11:42.005Z,5.33
2018-07-20T15:14:10.316Z,5.20
2018-07-20T15:16:38.276Z,5.65
2018-07-20T15:19:06.377Z,5.10
2018-07-20T15:21:34.401Z,5.53
2018-07-20T15:24:02.325Z,5.10
2018-07-20T15:26:30.296Z,5.37
2018-07-20T15:28:58.519Z,5.30
2018-07-20T15:31:26.703Z,5.10
2018-07-20T15:33:54.641Z,5.10
2018-07-20T15:36:22.612Z,5.50
2018-07-20T15:38:50.566Z,5.55
2018-07-20T15:41:18.517Z,5.20
2018-07-20T15:43:46.469Z,5.20
2018-07-20T15:46:14.399Z,5.20
2018-07-20T15:48:42.335Z,5.08
2018-07-20T15:51:10.250Z,5.62
2018-07-20T15:53:38.239Z,5.50
2018-07-20T15:56:06.145Z,5.40
2018-07-20T15:58:34.078Z,5.70
2018-07-20T16:01:01.825Z,5.78
2018-07-20T16:03:29.809Z,5.80
2018-07-20T16:05:57.812Z,5.97
2018-07-20T16:08:25.868Z,5.62
2018-07-20T16:10:53.617Z,5.12
2018-07-20T16:13:21.587Z,5.35
2018-07-20T16:15:49.573Z,5.25
2018-07-20T16:18:17.336Z,5.57
2018-07-20T16:20:45.120Z,5.70
2018-07-20T16:23:13.100Z,5.42
2018-07-20T16:25:41.127Z,9.63
2018-07-20T16:28:09.112Z,5.65
2018-07-20T16:30:37.030Z,5.30
2018-07-20T16:33:04.996Z,5.35
2018-07-20T16:35:32.910Z,6.45
2018-07-20T16:38:00.842Z,11.90
2018-07-20T16:40:28.745Z,9.08
2018-07-20T16:42:56.720Z,5.75
2018-07-20T16:45:24.664Z,5.50
2018-07-20T16:47:52.621Z,5.30
2018-07-20T16:50:20.537Z,5.60
2018-07-20T16:52:48.504Z,5.30
2018-07-20T16:55:16.459Z,5.62
2018-07-20T16:57:44.434Z,5.90
2018-07-20T17:00:12.368Z,5.70
2018-07-20T17:02:40.326Z,5.67
2018-07-20T17:05:08.273Z,6.10
2018-07-20T17:07:36.228Z,6.03
2018-07-20T17:10:04.783Z,7.10
2018-07-20T17:12:32.777Z,7.17
2018-07-20T17:15:00.677Z,5.07
2018-07-20T17:17:28.411Z,5.80
2018-07-20T17:19:56.288Z,5.70
2018-07-20T17:22:24.233Z,6.00
2018-07-20T17:24:52.132Z,5.50
2018-07-20T17:39:36.323Z,6.30
2018-07-20T17:42:04.354Z,5.80
2018-07-20T17:44:32.236Z,6.37
2018-07-20T17:47:00.224Z,6.80
2018-07-20T17:49:28.229Z,6.85
2018-07-20T17:51:56.201Z,6.95
2018-07-20T17:54:24.132Z,6.80
2018-07-20T17:56:52.098Z,6.83
2018-07-20T17:59:20.027Z,6.40
2018-07-20T18:01:47.928Z,6.37
2018-07-20T18:04:15.863Z,6.22
2018-07-20T18:06:43.774Z,6.47
2018-07-20T18:09:11.737Z,6.70
2018-07-20T18:11:39.677Z,7.05
2018-07-20T18:14:07.624Z,7.03
2018-07-20T18:16:35.651Z,7.37
2018-07-20T18:19:03.612Z,6.55
2018-07-20T18:21:31.357Z,7.83
2018-07-20T18:23:59.337Z,7.53
2018-07-20T18:26:27.093Z,7.53
2018-07-20T18:28:55.014Z,7.33
2018-07-20T18:31:22.961Z,8.43
2018-07-20T18:33:51.015Z,7.70
2018-07-20T18:36:18.924Z,8.50
2018-07-20T18:38:46.884Z,8.00
2018-07-20T18:41:14.787Z,8.45
2018-07-20T18:43:42.749Z,8.55
2018-07-20T18:46:10.736Z,7.95
2018-07-20T18:48:38.694Z,8.15
2018-07-20T18:51:06.898Z,8.90
2018-07-20T18:53:34.853Z,7.90
2018-07-20T18:56:02.773Z,8.50
2018-07-20T18:58:30.710Z,8.15
2018-07-20T19:00:58.660Z,8.63
2018-07-20T19:03:26.569Z,8.00
2018-07-20T19:05:54.318Z,8.60
2018-07-20T19:08:22.252Z,8.30
2018-07-20T19:10:50.229Z,9.13
2018-07-20T19:13:18.282Z,8.68
2018-07-20T19:15:46.241Z,8.30
2018-07-20T19:18:14.157Z,9.60
2018-07-20T19:20:42.054Z,9.20
2018-07-20T19:23:10.027Z,9.63
2018-07-20T19:25:37.783Z,8.85
2018-07-20T19:28:05.540Z,11.65
2018-07-20T19:30:33.512Z,11.43
2018-07-20T19:33:01.451Z,10.20
2018-07-20T19:35:29.393Z,10.60
2018-07-20T19:37:57.419Z,11.12
2018-07-20T19:43:10.458Z,10.87
2018-07-20T19:45:38.410Z,10.93
2018-07-20T19:48:06.303Z,10.23
2018-07-20T19:50:34.221Z,11.60
2018-07-20T19:53:02.154Z,11.08
2018-07-20T19:55:29.900Z,11.30
2018-07-20T19:57:57.874Z,12.03
2018-07-20T20:00:25.809Z,17.52
2018-07-20T20:02:53.712Z,11.83
2018-07-20T20:05:21.694Z,13.70
2018-07-20T20:07:49.706Z,16.65
2018-07-20T20:10:17.634Z,10.95
2018-07-20T20:12:45.617Z,12.03
2018-07-20T20:15:13.407Z,10.78
2018-07-20T20:17:41.387Z,10.38
2018-07-20T20:20:11.458Z,8.43
2018-07-20T20:22:39.513Z,7.80
2018-07-20T20:25:07.441Z,7.00
2018-07-20T20:27:35.438Z,6.72
2018-07-20T20:30:03.494Z,6.90
2018-07-20T20:32:31.500Z,6.67
2018-07-20T20:34:59.451Z,6.97
2018-07-20T20:37:27.481Z,6.72
2018-07-20T20:39:55.248Z,7.30
2018-07-20T20:42:22.983Z,7.50
2018-07-20T20:44:50.963Z,5.70
2018-07-20T20:47:18.879Z,5.67
2018-07-20T20:49:46.876Z,5.00
2018-07-20T20:52:14.818Z,4.42
2018-07-20T20:54:42.770Z,4.78
2018-07-20T20:57:10.541Z,4.53
2018-07-20T20:59:38.477Z,4.50
2018-07-20T21:02:06.577Z,5.60
2018-07-20T21:04:34.320Z,6.00
2018-07-20T21:07:02.303Z,5.30
2018-07-20T21:09:30.257Z,5.80
2018-07-20T21:11:58.303Z,6.37
2018-07-20T21:14:26.179Z,6.50
2018-07-20T21:16:54.133Z,7.20
2018-07-20T21:19:22.071Z,8.00
2018-07-20T21:21:49.992Z,8.33
2018-07-20T21:24:17.902Z,8.10
2018-07-20T21:26:45.603Z,9.78
2018-07-20T21:29:13.575Z,9.45
2018-07-20T21:31:41.541Z,9.30
2018-07-20T21:34:09.543Z,8.45
2018-07-20T21:36:37.531Z,8.25
2018-07-20T21:39:08.157Z,8.88
2018-07-20T21:41:36.353Z,8.63
2018-07-20T21:44:05.000Z,9.03
2018-07-20T21:46:32.948Z,9.68
2018-07-20T21:49:00.840Z,9.90
2018-07-20T21:51:28.782Z,10.32
2018-07-20T21:53:56.751Z,11.50
2018-07-20T21:56:24.728Z,10.30
2018-07-20T21:58:52.922Z,10.43
2018-07-20T22:01:20.954Z,12.77
2018-07-20T22:03:48.944Z,11.70
2018-07-20T22:06:16.886Z,11.40
2018-07-20T22:08:44.643Z,11.08
2018-07-20T22:11:12.423Z,11.08
2018-07-20T22:13:40.252Z,10.45
2018-07-20T22:16:08.157Z,11.68
2018-07-20T22:18:35.977Z,11.00
2018-07-20T22:21:05.794Z,11.22
2018-07-20T22:23:33.600Z,11.50
2018-07-20T22:26:06.079Z,10.53
2018-07-20T22:28:35.808Z,10.25
2018-07-20T22:31:05.406Z,11.25
2018-07-20T22:33:42.168Z,10.88
2018-07-20T22:36:18.459Z,11.00
2018-07-20T22:38:54.751Z,11.25
2018-07-20T22:41:26.033Z,11.40
2018-07-20T22:43:57.096Z,12.40
2018-07-20T22:46:28.290Z,13.18
2018-07-20T22:48:56.567Z,13.48
2018-07-20T22:51:25.355Z,13.22
2018-07-20T22:53:53.504Z,13.20
2018-07-20T22:56:21.667Z,13.60
2018-07-20T22:58:49.943Z,12.10
2018-07-20T23:01:17.835Z,11.73
2018-07-20T23:03:45.707Z,10.50
2018-07-20T23:06:13.863Z,12.20
2018-07-20T23:08:42.180Z,11.70
2018-07-20T23:11:10.468Z,13.00
2018-07-20T23:13:38.743Z,12.37
2018-07-20T23:16:06.805Z,11.40
2018-07-20T23:18:34.848Z,12.30
2018-07-20T23:21:03.048Z,12.60
2018-07-20T23:23:31.225Z,12.70
2018-07-20T23:25:59.327Z,14.47
2018-07-20T23:28:27.389Z,15.30
2018-07-20T23:30:55.520Z,15.58
2018-07-20T23:33:23.622Z,15.95
2018-07-20T23:35:51.673Z,15.50
2018-07-20T23:38:19.786Z,15.50
2018-07-20T23:40:48.160Z,15.75
2018-07-20T23:43:16.301Z,16.37
2018-07-20T23:45:44.511Z,15.58
2018-07-20T23:48:12.644Z,16.48
2018-07-20T23:50:40.558Z,16.90
2018-07-20T23:53:08.612Z,16.55
2018-07-20T23:55:36.701Z,16.97
2018-07-20T23:58:04.863Z,17.77
